Terminal Aerodrome Forecast
Issued by NWS

Home | Current Version | Previous Version | Text Only | Print | Product List | Glossary On
Versions: 1 2 3 4 5 6 7 8 9 10 11 12 13 14 15 16 17 18 19
501
FTUS44 KJAN 012327
TAFGTR
TAF
KGTR 012327Z 0200/0224 15005KT P6SM SCT040
     FM020900 19005KT P6SM OVC007
     FM021500 21006KT P6SM VCSH OVC015
     FM021800 24008KT P6SM -SHRA VCTS BKN035CB
     FM022300 26006KT P6SM -RA OVC050=

USA.gov is the U.S. government's official web portal to all federal, state and local government web resources and services.